createdAt,value
2023-02-04T00:02:06.174Z,9.88
2023-02-04T00:04:32.867Z,9.27
2023-02-04T00:06:59.546Z,11.05
2023-02-04T00:09:26.307Z,10.63
2023-02-04T00:11:53.153Z,9.48
2023-02-04T00:14:19.884Z,10.35
2023-02-04T00:16:46.616Z,9.35
2023-02-04T00:19:13.333Z,8.90
2023-02-04T00:21:40.130Z,8.63
2023-02-04T00:24:06.832Z,9.93
2023-02-04T00:26:33.568Z,8.15
2023-02-04T00:29:00.316Z,8.15
2023-02-04T00:31:27.122Z,8.85
2023-02-04T00:33:53.934Z,9.85
2023-02-04T00:36:20.743Z,8.63
2023-02-04T00:38:47.503Z,9.35
2023-02-04T00:41:14.169Z,8.00
2023-02-04T00:43:40.979Z,10.95
2023-02-04T00:46:07.897Z,8.05
2023-02-04T00:48:35.696Z,8.75
2023-02-04T00:51:02.708Z,8.48
2023-02-04T00:53:29.458Z,8.38
2023-02-04T00:55:57.499Z,8.77
2023-02-04T00:58:24.498Z,7.88
2023-02-04T01:00:51.343Z,7.72
2023-02-04T01:03:18.115Z,7.13
2023-02-04T01:05:44.776Z,6.63
2023-02-04T01:08:11.604Z,7.28
2023-02-04T01:10:38.405Z,7.70
2023-02-04T01:13:05.247Z,7.63
2023-02-04T01:15:31.984Z,7.07
2023-02-04T01:17:58.691Z,6.57
2023-02-04T01:20:25.539Z,6.72
2023-02-04T01:22:52.314Z,6.40
2023-02-04T01:25:19.913Z,6.60
2023-02-04T01:27:46.776Z,5.88
2023-02-04T01:30:15.112Z,5.97
2023-02-04T01:32:42.006Z,6.68
2023-02-04T01:35:08.870Z,5.15
2023-02-04T01:37:35.788Z,6.55
2023-02-04T01:40:02.504Z,4.88
2023-02-04T01:42:29.422Z,6.10
2023-02-04T01:44:56.075Z,5.45
2023-02-04T01:47:23.792Z,7.00
2023-02-04T01:49:52.837Z,6.10
2023-02-04T01:52:19.853Z,7.20
2023-02-04T01:54:46.705Z,5.55
2023-02-04T01:57:15.329Z,5.03
2023-02-04T01:59:44.596Z,5.18
2023-02-04T02:02:40.907Z,4.90
2023-02-04T02:05:10.245Z,6.15
2023-02-04T02:07:37.257Z,5.57
2023-02-04T02:10:06.626Z,5.72
2023-02-04T02:12:33.356Z,6.38
2023-02-04T02:15:00.327Z,4.82
2023-02-04T02:17:27.084Z,5.35
2023-02-04T02:19:53.806Z,5.70
2023-02-04T02:22:45.248Z,5.93
2023-02-04T02:25:13.898Z,5.18
2023-02-04T02:27:43.426Z,5.00
2023-02-04T02:30:12.050Z,6.13
2023-02-04T02:32:39.123Z,6.45
2023-02-04T02:35:06.547Z,5.70
2023-02-04T02:37:34.143Z,5.00
2023-02-04T02:40:00.853Z,4.93
2023-02-04T02:42:27.641Z,4.93
2023-02-04T02:44:54.541Z,4.78
2023-02-04T02:47:23.697Z,6.25
2023-02-04T02:49:52.485Z,5.53
2023-02-04T02:52:19.646Z,5.22
2023-02-04T02:54:47.197Z,5.43
2023-02-04T02:57:17.705Z,5.72
2023-02-04T02:59:44.748Z,5.57
2023-02-04T03:02:14.185Z,5.32
2023-02-04T03:04:44.304Z,5.20
2023-02-04T03:07:12.286Z,5.18
2023-02-04T03:09:38.975Z,5.22
2023-02-04T03:12:07.352Z,5.72
2023-02-04T03:14:36.144Z,4.85
2023-02-04T03:17:05.359Z,5.72
2023-02-04T03:19:32.354Z,5.95
2023-02-04T03:21:59.924Z,5.60
2023-02-04T03:24:29.704Z,4.90
2023-02-04T03:26:57.482Z,5.00
2023-02-04T03:29:24.207Z,5.65
2023-02-04T03:31:50.938Z,4.72
2023-02-04T03:34:17.827Z,4.95
2023-02-04T03:36:44.622Z,6.00
2023-02-04T03:39:11.457Z,5.18
2023-02-04T03:41:38.187Z,4.15
2023-02-04T03:44:04.883Z,6.47
2023-02-04T03:46:31.708Z,4.65
2023-02-04T03:48:58.434Z,5.30
2023-02-04T03:51:25.259Z,4.50
2023-02-04T03:53:51.994Z,5.75
2023-02-04T03:56:18.677Z,5.40
2023-02-04T03:58:45.380Z,5.72
2023-02-04T04:01:12.140Z,5.07
2023-02-04T04:03:38.837Z,6.20
2023-02-04T04:06:08.578Z,5.32
2023-02-04T04:08:35.507Z,5.90
2023-02-04T04:11:02.162Z,4.35
2023-02-04T04:13:28.936Z,6.20
2023-02-04T04:16:01.293Z,6.25
2023-02-04T04:18:28.232Z,5.68
2023-02-04T04:20:54.940Z,5.10
2023-02-04T04:23:21.611Z,5.47
2023-02-04T04:25:48.434Z,5.60
2023-02-04T04:28:15.176Z,5.60
2023-02-04T04:30:42.132Z,4.40
2023-02-04T04:33:08.851Z,4.25
2023-02-04T04:35:35.667Z,6.45
2023-02-04T04:38:02.942Z,5.10
2023-02-04T04:40:29.842Z,6.38
2023-02-04T04:42:56.723Z,5.75
2023-02-04T04:45:23.504Z,4.38
2023-02-04T04:47:50.180Z,4.57
2023-02-04T04:50:16.984Z,5.47
2023-02-04T04:52:43.670Z,4.90
2023-02-04T04:55:10.626Z,5.05
2023-02-04T04:57:37.383Z,5.25
2023-02-04T05:00:06.231Z,5.07
2023-02-04T05:02:33.004Z,4.60
2023-02-04T05:04:59.853Z,4.78
2023-02-04T05:07:27.688Z,4.97
2023-02-04T05:09:54.424Z,5.80
2023-02-04T05:12:21.119Z,5.75
2023-02-04T05:14:47.823Z,5.15
2023-02-04T05:17:14.486Z,4.78
2023-02-04T05:19:41.173Z,5.15
2023-02-04T05:22:07.839Z,4.95
2023-02-04T05:24:34.518Z,6.25
2023-02-04T05:27:01.288Z,4.85
2023-02-04T05:29:27.991Z,5.53
2023-02-04T05:31:54.728Z,5.10
2023-02-04T05:34:21.366Z,4.85
2023-02-04T05:36:48.149Z,5.00
2023-02-04T05:39:14.823Z,4.82
2023-02-04T05:41:41.483Z,4.45
2023-02-04T05:44:08.279Z,4.70
2023-02-04T05:46:35.039Z,4.25
2023-02-04T05:49:01.931Z,5.30
2023-02-04T05:51:28.636Z,4.95
2023-02-04T05:53:55.443Z,4.95
2023-02-04T05:56:22.222Z,4.45
2023-02-04T05:58:49.024Z,5.10
2023-02-04T06:01:15.821Z,4.10
2023-02-04T06:03:42.465Z,6.43
2023-02-04T06:06:09.277Z,4.32
2023-02-04T06:08:35.961Z,5.15
2023-02-04T06:11:02.684Z,4.30
2023-02-04T06:13:29.317Z,4.25
2023-02-04T06:15:56.000Z,4.03
2023-02-04T06:18:22.691Z,5.22
2023-02-04T06:20:49.456Z,4.93
2023-02-04T06:23:16.204Z,4.68
2023-02-04T06:25:42.848Z,3.53
2023-02-04T06:28:09.715Z,4.25
2023-02-04T06:30:37.469Z,3.95
2023-02-04T06:33:04.163Z,4.00
2023-02-04T06:35:31.053Z,3.90
2023-02-04T06:37:57.740Z,4.38
2023-02-04T06:40:24.457Z,3.92
2023-02-04T06:42:51.157Z,3.88
2023-02-04T06:45:17.898Z,3.95
2023-02-04T06:47:44.890Z,7.72
2023-02-04T06:50:12.168Z,16.15
2023-02-04T06:52:38.899Z,12.77
2023-02-04T06:55:05.865Z,13.10
2023-02-04T06:57:32.549Z,12.80
2023-02-04T07:00:00.201Z,11.30
2023-02-04T07:02:26.921Z,9.55
2023-02-04T07:04:53.613Z,5.75
2023-02-04T07:07:20.294Z,4.93
2023-02-04T07:09:46.983Z,4.60
2023-02-04T07:12:16.085Z,3.92
2023-02-04T07:14:42.978Z,4.18
2023-02-04T07:17:09.718Z,3.97
2023-02-04T07:19:36.635Z,4.05
2023-02-04T07:22:04.356Z,5.00
2023-02-04T07:24:31.471Z,5.22
2023-02-04T07:26:58.145Z,4.95
2023-02-04T07:29:27.035Z,5.38
2023-02-04T07:31:54.317Z,4.40
2023-02-04T07:34:21.417Z,4.60
2023-02-04T07:36:48.250Z,4.63
2023-02-04T07:39:14.999Z,4.95
2023-02-04T07:41:41.712Z,3.70
2023-02-04T07:44:08.469Z,5.45
2023-02-04T07:46:35.265Z,5.03
2023-02-04T07:49:02.075Z,5.38
2023-02-04T07:51:28.869Z,4.25
2023-02-04T07:53:56.620Z,5.10
2023-02-04T07:56:23.430Z,4.88
2023-02-04T07:58:50.152Z,3.90
2023-02-04T08:01:17.074Z,4.30
2023-02-04T08:03:44.189Z,4.60
2023-02-04T08:06:11.196Z,4.32
2023-02-04T08:08:37.873Z,4.55
2023-02-04T08:11:04.600Z,5.13
2023-02-04T08:13:31.356Z,5.13
2023-02-04T08:15:58.112Z,5.88
2023-02-04T08:18:25.138Z,6.50
2023-02-04T08:20:52.085Z,6.85
2023-02-04T08:23:18.775Z,6.03
2023-02-04T08:25:45.577Z,5.60
2023-02-04T08:28:12.536Z,5.15
2023-02-04T08:30:39.274Z,6.75
2023-02-04T08:33:06.017Z,5.85
2023-02-04T08:35:32.698Z,6.05
2023-02-04T08:37:59.381Z,6.53
2023-02-04T08:40:26.106Z,7.15
2023-02-04T08:42:52.785Z,7.57
2023-02-04T08:45:19.475Z,7.85
2023-02-04T08:47:46.332Z,8.88
2023-02-04T08:50:13.124Z,7.78
2023-02-04T08:52:39.839Z,8.18
2023-02-04T08:55:06.883Z,8.85
2023-02-04T08:57:34.994Z,8.50
2023-02-04T09:00:01.892Z,9.52
2023-02-04T09:02:28.724Z,9.75
2023-02-04T09:04:55.438Z,8.23
2023-02-04T09:07:22.455Z,7.47
2023-02-04T09:09:49.276Z,7.43
2023-02-04T09:12:16.002Z,7.50
2023-02-04T09:14:42.676Z,7.85
2023-02-04T09:17:09.416Z,8.75
2023-02-04T09:19:36.392Z,8.60
2023-02-04T09:22:03.038Z,9.02
2023-02-04T09:24:29.765Z,9.65
2023-02-04T09:26:56.621Z,8.07
2023-02-04T09:29:23.332Z,8.68
2023-02-04T09:31:50.201Z,7.97
2023-02-04T09:34:16.996Z,7.65
2023-02-04T09:36:45.947Z,9.25
2023-02-04T09:39:12.690Z,9.27
2023-02-04T09:41:40.745Z,9.48
2023-02-04T09:44:17.774Z,9.52
2023-02-04T09:46:50.674Z,9.30
2023-02-04T09:49:17.397Z,10.48
2023-02-04T09:51:44.877Z,10.55
2023-02-04T09:54:22.016Z,11.40
2023-02-04T09:56:48.820Z,10.40
2023-02-04T09:59:18.145Z,10.00
2023-02-04T10:01:45.326Z,9.73
2023-02-04T10:04:13.581Z,9.45
2023-02-04T10:06:41.347Z,9.18
2023-02-04T10:09:11.225Z,9.55
2023-02-04T10:11:39.415Z,8.20
2023-02-04T10:14:07.180Z,8.68
2023-02-04T10:16:35.147Z,7.95
2023-02-04T10:19:03.868Z,8.38
2023-02-04T10:21:33.239Z,6.97
2023-02-04T10:24:01.731Z,8.00
2023-02-04T10:26:30.775Z,8.25
2023-02-04T10:29:21.790Z,8.50
2023-02-04T10:31:50.084Z,9.75
2023-02-04T10:34:20.854Z,8.68
2023-02-04T10:36:50.134Z,8.00
2023-02-04T10:39:27.517Z,5.90
2023-02-04T10:42:01.615Z,5.70
2023-02-04T10:44:33.294Z,5.07
2023-02-04T10:47:20.693Z,4.93
2023-02-04T10:50:07.243Z,5.50
2023-02-04T10:52:39.660Z,4.78
2023-02-04T10:55:12.204Z,3.78
2023-02-04T10:57:40.344Z,3.85
2023-02-04T11:00:15.693Z,3.17
2023-02-04T11:02:51.172Z,3.08
2023-02-04T11:05:20.240Z,2.80
2023-02-04T11:07:48.079Z,3.58
2023-02-04T11:10:22.823Z,2.83
2023-02-04T11:12:55.395Z,2.83
2023-02-04T11:15:44.918Z,2.40
2023-02-04T11:18:32.090Z,2.67
2023-02-04T11:20:59.360Z,3.08
2023-02-04T11:23:26.030Z,3.63
2023-02-04T11:26:14.530Z,2.70
2023-02-04T11:28:41.130Z,5.75
2023-02-04T11:31:20.179Z,2.10
2023-02-04T11:33:48.485Z,2.97
2023-02-04T11:36:17.171Z,2.38
2023-02-04T11:38:46.001Z,2.00
2023-02-04T11:41:31.541Z,2.08
2023-02-04T11:43:58.498Z,3.90
2023-02-04T11:46:29.392Z,4.03
2023-02-04T11:48:57.917Z,3.13
2023-02-04T11:51:31.481Z,3.00
2023-02-04T11:53:58.379Z,4.55
2023-02-04T11:56:28.933Z,4.88
2023-02-04T11:58:58.790Z,3.80
2023-02-04T12:01:31.382Z,2.85
2023-02-04T12:04:04.405Z,3.58
2023-02-04T12:06:33.783Z,2.33
2023-02-04T12:09:24.186Z,2.20
2023-02-04T12:11:58.276Z,2.08
2023-02-04T12:14:33.858Z,2.90
2023-02-04T12:17:00.849Z,2.78
2023-02-04T12:19:28.206Z,2.70
2023-02-04T12:21:55.718Z,2.90
2023-02-04T12:24:22.436Z,2.90
2023-02-04T12:26:49.134Z,2.92
2023-02-04T12:29:15.852Z,2.53
2023-02-04T12:31:42.696Z,3.45
2023-02-04T12:34:09.503Z,2.67
2023-02-04T12:36:36.293Z,3.50
2023-02-04T12:39:03.600Z,2.80
2023-02-04T12:41:30.332Z,2.40
2023-02-04T12:43:57.073Z,2.50
2023-02-04T12:46:23.962Z,2.88
2023-02-04T12:48:50.739Z,3.05
2023-02-04T12:51:17.479Z,4.47
2023-02-04T12:53:44.166Z,3.00
2023-02-04T12:56:10.888Z,2.20
2023-02-04T12:58:37.735Z,2.10
2023-02-04T13:01:04.739Z,3.22
2023-02-04T13:03:32.179Z,2.83
2023-02-04T13:05:59.256Z,3.40
2023-02-04T13:08:26.104Z,3.35
2023-02-04T13:10:52.869Z,2.10
2023-02-04T13:13:20.349Z,3.05
2023-02-04T13:15:47.171Z,2.13
2023-02-04T13:18:16.100Z,1.75
2023-02-04T13:20:43.835Z,2.58
2023-02-04T13:23:10.472Z,3.05
2023-02-04T13:25:37.255Z,1.90
2023-02-04T13:28:04.217Z,1.90
2023-02-04T13:30:31.032Z,2.25
2023-02-04T13:32:57.794Z,2.05
2023-02-04T13:35:25.482Z,2.05
2023-02-04T13:37:52.171Z,2.15
2023-02-04T13:40:18.889Z,3.08
2023-02-04T13:42:45.859Z,1.85
2023-02-04T13:45:12.791Z,2.45
2023-02-04T13:47:39.691Z,2.20
2023-02-04T13:50:07.027Z,2.28
2023-02-04T13:52:34.424Z,2.20
2023-02-04T13:55:01.394Z,2.97
2023-02-04T13:57:28.185Z,1.95
2023-02-04T13:59:54.916Z,1.73
2023-02-04T14:02:23.897Z,1.98
2023-02-04T14:04:51.000Z,3.38
2023-02-04T14:07:17.918Z,3.58
2023-02-04T14:09:44.592Z,2.53
2023-02-04T14:12:11.251Z,2.17
2023-02-04T14:14:37.954Z,1.60
2023-02-04T14:17:04.604Z,1.77
2023-02-04T14:19:31.401Z,1.60
2023-02-04T14:21:58.519Z,2.05
2023-02-04T14:24:25.544Z,1.83
2023-02-04T14:26:52.346Z,2.75
2023-02-04T14:29:19.152Z,2.08
2023-02-04T14:31:45.883Z,1.67
2023-02-04T14:34:13.307Z,1.80
2023-02-04T14:36:40.090Z,1.67
2023-02-04T14:39:07.018Z,1.85
2023-02-04T14:41:33.829Z,1.90
2023-02-04T14:44:00.570Z,1.67
2023-02-04T14:46:27.300Z,1.50
2023-02-04T14:48:54.633Z,1.70
2023-02-04T14:51:21.415Z,2.10
2023-02-04T14:53:48.725Z,1.13
2023-02-04T14:56:16.472Z,1.95
2023-02-04T14:58:43.314Z,1.90
2023-02-04T15:01:10.043Z,1.88
2023-02-04T15:03:36.877Z,1.58
2023-02-04T15:06:03.862Z,1.75
2023-02-04T15:08:32.703Z,2.88
2023-02-04T15:10:59.437Z,1.40
2023-02-04T15:13:26.394Z,1.25
2023-02-04T15:15:53.079Z,1.65
2023-02-04T15:18:20.052Z,1.85
2023-02-04T15:20:46.759Z,1.83
2023-02-04T15:23:15.105Z,1.67
2023-02-04T15:25:41.963Z,1.77
2023-02-04T15:28:11.680Z,2.10
2023-02-04T15:30:39.073Z,1.88
2023-02-04T15:33:05.903Z,2.25
2023-02-04T15:35:32.741Z,1.80
2023-02-04T15:37:59.522Z,1.48
2023-02-04T15:40:29.985Z,2.25
2023-02-04T15:42:56.955Z,1.70
2023-02-04T15:45:23.716Z,1.30
2023-02-04T15:47:50.524Z,1.60
2023-02-04T15:50:17.481Z,1.75
2023-02-04T15:52:44.333Z,1.65
2023-02-04T15:55:11.033Z,1.90
2023-02-04T15:57:38.478Z,2.13
2023-02-04T16:00:06.239Z,2.40
2023-02-04T16:02:33.087Z,1.80
2023-02-04T16:05:00.226Z,2.55
2023-02-04T16:07:26.912Z,3.03
2023-02-04T16:09:53.558Z,2.33
2023-02-04T16:12:20.355Z,1.30
2023-02-04T16:14:47.222Z,1.95
2023-02-04T16:17:13.856Z,1.55
2023-02-04T16:19:40.590Z,1.50
2023-02-04T16:22:07.499Z,1.30
2023-02-04T16:24:34.573Z,1.30
2023-02-04T16:27:01.272Z,1.17
2023-02-04T16:29:28.000Z,1.48
2023-02-04T16:31:56.965Z,1.70
2023-02-04T16:34:24.564Z,1.70
2023-02-04T16:36:51.369Z,1.83
2023-02-04T16:39:18.064Z,2.40
2023-02-04T16:41:44.767Z,1.40
2023-02-04T16:44:11.639Z,2.67
2023-02-04T16:46:38.394Z,2.47
2023-02-04T16:49:05.257Z,1.70
2023-02-04T16:51:31.967Z,2.10
2023-02-04T16:53:58.617Z,1.92
2023-02-04T16:56:27.083Z,1.92
2023-02-04T16:58:53.826Z,1.73
2023-02-04T17:01:20.566Z,2.72
2023-02-04T17:03:47.378Z,1.95
2023-02-04T17:06:16.409Z,2.55
2023-02-04T17:08:43.121Z,2.65
2023-02-04T17:11:28.605Z,1.35
2023-02-04T17:14:03.711Z,1.52
2023-02-04T17:16:30.702Z,1.10
2023-02-04T17:18:57.522Z,1.52
2023-02-04T17:21:28.247Z,1.27
2023-02-04T17:23:56.067Z,1.38
2023-02-04T17:26:24.261Z,1.63
2023-02-04T17:28:51.135Z,2.20
2023-02-04T17:31:17.854Z,1.42
2023-02-04T17:33:44.708Z,2.47
2023-02-04T17:36:13.711Z,1.58
2023-02-04T17:38:40.996Z,1.45
2023-02-04T17:41:07.680Z,1.25
2023-02-04T17:43:36.996Z,1.50
2023-02-04T17:46:03.891Z,2.80
2023-02-04T17:48:31.273Z,3.35
2023-02-04T17:50:58.102Z,3.67
2023-02-04T17:53:24.900Z,2.55
2023-02-04T17:55:51.591Z,4.43
2023-02-04T17:58:30.830Z,4.00
2023-02-04T18:00:58.433Z,3.28
2023-02-04T18:03:27.393Z,2.30
2023-02-04T18:05:56.258Z,1.33
2023-02-04T18:08:22.897Z,1.40
2023-02-04T18:10:51.252Z,2.00
2023-02-04T18:13:21.914Z,1.63
2023-02-04T18:15:52.734Z,1.95
2023-02-04T18:18:35.947Z,2.30
2023-02-04T18:21:17.050Z,2.83
2023-02-04T18:23:45.930Z,2.60
2023-02-04T18:26:18.946Z,2.90
2023-02-04T18:28:47.660Z,2.53
2023-02-04T18:31:36.912Z,3.05
2023-02-04T18:34:20.452Z,3.10
2023-02-04T18:39:18.914Z,5.60
2023-02-04T18:41:48.397Z,4.57
2023-02-04T18:44:34.132Z,4.10
2023-02-04T18:47:04.977Z,4.80
2023-02-04T18:49:37.949Z,4.53
2023-02-04T18:52:18.686Z,4.72
2023-02-04T18:54:52.734Z,6.28
2023-02-04T18:57:28.932Z,6.45
2023-02-04T19:00:23.563Z,5.90
2023-02-04T19:03:25.458Z,6.13
2023-02-04T19:05:53.224Z,5.45
2023-02-04T19:08:22.593Z,5.40
2023-02-04T19:10:51.129Z,4.90
2023-02-04T19:13:47.144Z,6.45
2023-02-04T19:16:37.122Z,6.00
2023-02-04T19:19:25.292Z,6.60
2023-02-04T19:21:52.133Z,9.27
2023-02-04T19:24:24.176Z,7.15
2023-02-04T19:26:57.622Z,5.78
2023-02-04T19:29:28.652Z,5.78
2023-02-04T19:32:18.266Z,6.32
2023-02-04T19:34:44.978Z,7.60
2023-02-04T19:37:26.540Z,8.68
2023-02-04T19:39:54.645Z,7.80
2023-02-04T19:42:36.311Z,6.75
2023-02-04T19:45:24.190Z,6.47
2023-02-04T19:47:54.064Z,6.93
2023-02-04T19:50:24.081Z,6.97
2023-02-04T19:53:00.482Z,7.40
2023-02-04T19:55:33.611Z,6.38
2023-02-04T19:58:14.231Z,6.80
2023-02-04T20:00:44.797Z,6.22
2023-02-04T20:03:35.701Z,6.07
2023-02-04T20:06:27.512Z,5.93
2023-02-04T20:09:20.225Z,6.10
2023-02-04T20:11:55.364Z,6.18
2023-02-04T20:14:27.877Z,6.38
2023-02-04T20:17:03.390Z,7.22
2023-02-04T20:19:30.051Z,6.55
2023-02-04T20:22:18.526Z,7.15
2023-02-04T20:24:49.764Z,6.90
2023-02-04T20:27:26.770Z,6.57
2023-02-04T20:29:59.194Z,7.60
2023-02-04T20:32:27.115Z,6.93
2023-02-04T20:35:15.107Z,7.72
2023-02-04T20:37:42.618Z,9.20
2023-02-04T20:40:17.121Z,7.60
2023-02-04T20:42:47.981Z,8.88
2023-02-04T20:45:40.952Z,8.75
2023-02-04T20:48:16.532Z,7.40
2023-02-04T20:50:48.072Z,7.53
2023-02-04T20:53:26.159Z,6.20
2023-02-04T20:56:04.080Z,6.70
2023-02-04T20:58:37.393Z,7.25
2023-02-04T21:01:17.125Z,7.13
2023-02-04T21:03:45.712Z,6.90
2023-02-04T21:06:32.134Z,6.20
2023-02-04T21:08:59.675Z,6.70
2023-02-04T21:11:26.681Z,6.97
2023-02-04T21:13:54.382Z,7.47
2023-02-04T21:16:21.500Z,6.57
2023-02-04T21:18:48.218Z,6.78
2023-02-04T21:21:15.020Z,6.97
2023-02-04T21:23:42.011Z,6.35
2023-02-04T21:26:08.754Z,7.30
2023-02-04T21:28:35.555Z,8.40
2023-02-04T21:31:03.216Z,8.15
2023-02-04T21:33:30.122Z,7.78
2023-02-04T21:35:56.911Z,8.60
2023-02-04T21:38:23.765Z,8.45
2023-02-04T21:40:50.603Z,8.55
2023-02-04T21:43:17.444Z,8.85
2023-02-04T21:45:44.169Z,8.63
2023-02-04T21:48:10.988Z,7.95
2023-02-04T21:50:41.063Z,8.15
2023-02-04T21:53:08.908Z,9.32
2023-02-04T21:55:36.235Z,8.80
2023-02-04T21:58:03.747Z,8.20
2023-02-04T22:00:30.722Z,8.55
2023-02-04T22:02:57.659Z,8.73
2023-02-04T22:05:24.532Z,7.97
2023-02-04T22:07:51.646Z,9.25
2023-02-04T22:10:21.667Z,9.10
2023-02-04T22:12:48.502Z,8.48
2023-02-04T22:15:21.605Z,9.23
2023-02-04T22:17:49.126Z,8.88
2023-02-04T22:20:16.195Z,9.00
2023-02-04T22:22:44.433Z,8.45
2023-02-04T22:25:12.631Z,8.52
2023-02-04T22:27:39.361Z,8.48
2023-02-04T22:30:07.010Z,8.05
2023-02-04T22:32:33.773Z,9.20
2023-02-04T22:35:00.472Z,8.65
2023-02-04T22:37:27.219Z,9.00
2023-02-04T22:39:54.085Z,9.07
2023-02-04T22:42:20.939Z,8.07
2023-02-04T22:44:47.661Z,7.47
2023-02-04T22:47:14.441Z,8.48
2023-02-04T22:49:41.146Z,8.30
2023-02-04T22:52:08.131Z,7.90
2023-02-04T22:54:34.878Z,7.38
2023-02-04T22:57:01.664Z,8.40
2023-02-04T22:59:28.342Z,7.25
2023-02-04T23:01:55.682Z,7.90
2023-02-04T23:04:22.811Z,7.40
2023-02-04T23:06:49.926Z,7.82
2023-02-04T23:09:16.698Z,7.30
2023-02-04T23:11:43.432Z,8.00
2023-02-04T23:14:10.461Z,7.25
2023-02-04T23:16:37.245Z,7.18
2023-02-04T23:19:04.414Z,7.10
2023-02-04T23:21:31.720Z,8.05
2023-02-04T23:23:58.764Z,7.75
2023-02-04T23:26:25.624Z,7.00
2023-02-04T23:28:52.358Z,6.53
2023-02-04T23:31:19.150Z,7.10
2023-02-04T23:33:45.884Z,7.80
2023-02-04T23:36:12.635Z,7.88
2023-02-04T23:38:39.374Z,8.25
2023-02-04T23:41:06.183Z,7.63
2023-02-04T23:43:32.844Z,7.90
2023-02-04T23:46:00.172Z,8.15
2023-02-04T23:48:27.110Z,7.90
2023-02-04T23:50:56.965Z,7.53
2023-02-04T23:53:24.133Z,7.80
2023-02-04T23:55:51.428Z,7.70
2023-02-04T23:58:18.110Z,7.63
